Paracambi, Brazil
Current Conditions -  °F | °C
As of 4:00 AM on Monday 22 Dec 2014 (Local Time) from SBSC Reporting Station
Scattered Clouds Scattered Clouds  
Wind Chill: 81°   Ceiling: Unl
Heat Index: 83°   Visibility: 6mi
Dew Point: 68°   Wind: 7mph
Humidity: 65%   Direction: 10°N
Pressure: 29.77"   Gusts: NA
Location:  22.61°S, 43.71°W
Report Text: SBSC 220600Z 01006KT 9999 SCT020 27/20 Q1008
Loading
Personal Weather Stations






























Interactive Weather Map New forecast layout! Learn more

10-Day Weather Forecast

Advertisements
Track Severe Weather on mobile